sensor_id;sensor_type;location;lat;lon;timestamp;P1;durP1;ratioP1;P2;durP2;ratioP2
27161;SDS011;54464;50.558;9.704;2023-07-09T00:00:46;5.00;;;4.40;;
27161;SDS011;54464;50.558;9.704;2023-07-09T00:03:13;7.97;;;4.97;;
27161;SDS011;54464;50.558;9.704;2023-07-09T00:05:40;6.95;;;5.18;;
27161;SDS011;54464;50.558;9.704;2023-07-09T00:08:07;6.38;;;4.53;;
27161;SDS011;54464;50.558;9.704;2023-07-09T00:10:56;8.45;;;5.85;;
27161;SDS011;54464;50.558;9.704;2023-07-09T00:13:23;7.55;;;6.10;;
27161;SDS011;54464;50.558;9.704;2023-07-09T00:15:50;7.95;;;5.97;;
27161;SDS011;54464;50.558;9.704;2023-07-09T00:18:16;7.78;;;6.70;;
27161;SDS011;54464;50.558;9.704;2023-07-09T00:20:42;9.70;;;7.00;;
27161;SDS011;54464;50.558;9.704;2023-07-09T00:23:08;7.97;;;6.57;;
27161;SDS011;54464;50.558;9.704;2023-07-09T00:25:38;8.82;;;7.07;;
27161;SDS011;54464;50.558;9.704;2023-07-09T00:28:18;8.70;;;6.18;;
27161;SDS011;54464;50.558;9.704;2023-07-09T00:30:45;8.65;;;5.75;;
27161;SDS011;54464;50.558;9.704;2023-07-09T00:33:12;8.07;;;6.03;;
27161;SDS011;54464;50.558;9.704;2023-07-09T00:35:42;8.15;;;6.00;;
27161;SDS011;54464;50.558;9.704;2023-07-09T00:38:18;7.95;;;6.30;;
27161;SDS011;54464;50.558;9.704;2023-07-09T00:41:00;8.38;;;6.03;;
27161;SDS011;54464;50.558;9.704;2023-07-09T00:43:29;7.63;;;6.13;;
27161;SDS011;54464;50.558;9.704;2023-07-09T00:48:56;7.05;;;5.53;;
27161;SDS011;54464;50.558;9.704;2023-07-09T00:51:30;8.73;;;5.78;;
27161;SDS011;54464;50.558;9.704;2023-07-09T00:54:31;6.80;;;5.55;;
27161;SDS011;54464;50.558;9.704;2023-07-09T00:56:59;5.63;;;4.97;;
27161;SDS011;54464;50.558;9.704;2023-07-09T00:59:31;6.57;;;5.00;;
27161;SDS011;54464;50.558;9.704;2023-07-09T01:01:57;9.50;;;5.60;;
27161;SDS011;54464;50.558;9.704;2023-07-09T01:04:25;8.63;;;5.47;;
27161;SDS011;54464;50.558;9.704;2023-07-09T01:06:52;7.32;;;5.68;;
27161;SDS011;54464;50.558;9.704;2023-07-09T01:09:20;7.95;;;5.72;;
27161;SDS011;54464;50.558;9.704;2023-07-09T01:11:47;7.68;;;6.18;;
27161;SDS011;54464;50.558;9.704;2023-07-09T01:14:14;8.52;;;5.97;;
27161;SDS011;54464;50.558;9.704;2023-07-09T01:16:44;8.85;;;6.38;;
27161;SDS011;54464;50.558;9.704;2023-07-09T01:19:13;6.45;;;5.78;;
27161;SDS011;54464;50.558;9.704;2023-07-09T01:21:41;7.07;;;6.13;;
27161;SDS011;54464;50.558;9.704;2023-07-09T01:24:13;10.82;;;6.30;;
27161;SDS011;54464;50.558;9.704;2023-07-09T01:27:00;8.52;;;6.55;;
27161;SDS011;54464;50.558;9.704;2023-07-09T01:29:29;7.85;;;6.15;;
27161;SDS011;54464;50.558;9.704;2023-07-09T01:31:58;8.70;;;6.47;;
27161;SDS011;54464;50.558;9.704;2023-07-09T01:34:23;8.35;;;5.93;;
27161;SDS011;54464;50.558;9.704;2023-07-09T01:36:50;7.65;;;6.32;;
27161;SDS011;54464;50.558;9.704;2023-07-09T01:39:16;9.05;;;6.20;;
27161;SDS011;54464;50.558;9.704;2023-07-09T01:41:43;7.95;;;6.10;;
27161;SDS011;54464;50.558;9.704;2023-07-09T01:44:12;6.10;;;5.37;;
27161;SDS011;54464;50.558;9.704;2023-07-09T01:46:38;5.82;;;4.70;;
27161;SDS011;54464;50.558;9.704;2023-07-09T01:49:04;7.15;;;4.78;;
27161;SDS011;54464;50.558;9.704;2023-07-09T01:51:32;6.22;;;4.82;;
27161;SDS011;54464;50.558;9.704;2023-07-09T01:53:58;6.28;;;4.45;;
27161;SDS011;54464;50.558;9.704;2023-07-09T01:56:24;6.30;;;4.68;;
27161;SDS011;54464;50.558;9.704;2023-07-09T01:58:50;6.70;;;4.57;;
27161;SDS011;54464;50.558;9.704;2023-07-09T02:01:16;5.35;;;4.22;;
27161;SDS011;54464;50.558;9.704;2023-07-09T02:03:44;5.93;;;4.50;;
27161;SDS011;54464;50.558;9.704;2023-07-09T02:06:10;5.73;;;4.30;;
27161;SDS011;54464;50.558;9.704;2023-07-09T02:08:36;6.00;;;4.50;;
27161;SDS011;54464;50.558;9.704;2023-07-09T02:11:02;5.40;;;4.60;;
27161;SDS011;54464;50.558;9.704;2023-07-09T02:13:28;5.95;;;4.30;;
27161;SDS011;54464;50.558;9.704;2023-07-09T02:15:53;6.95;;;4.40;;
27161;SDS011;54464;50.558;9.704;2023-07-09T02:18:19;4.80;;;4.15;;
27161;SDS011;54464;50.558;9.704;2023-07-09T02:20:47;5.13;;;4.30;;
27161;SDS011;54464;50.558;9.704;2023-07-09T02:23:13;4.57;;;4.10;;
27161;SDS011;54464;50.558;9.704;2023-07-09T02:25:41;4.63;;;4.07;;
27161;SDS011;54464;50.558;9.704;2023-07-09T02:28:06;4.45;;;3.63;;
27161;SDS011;54464;50.558;9.704;2023-07-09T02:30:32;5.68;;;4.20;;
27161;SDS011;54464;50.558;9.704;2023-07-09T02:33:00;5.13;;;4.10;;
27161;SDS011;54464;50.558;9.704;2023-07-09T02:35:28;5.35;;;3.88;;
27161;SDS011;54464;50.558;9.704;2023-07-09T02:37:54;4.90;;;3.60;;
27161;SDS011;54464;50.558;9.704;2023-07-09T02:40:22;6.88;;;4.63;;
27161;SDS011;54464;50.558;9.704;2023-07-09T02:42:51;6.47;;;4.13;;
27161;SDS011;54464;50.558;9.704;2023-07-09T02:45:16;5.97;;;4.97;;
27161;SDS011;54464;50.558;9.704;2023-07-09T02:47:42;8.48;;;5.82;;
27161;SDS011;54464;50.558;9.704;2023-07-09T02:50:07;9.60;;;5.97;;
27161;SDS011;54464;50.558;9.704;2023-07-09T02:52:44;7.73;;;6.33;;
27161;SDS011;54464;50.558;9.704;2023-07-09T02:55:13;8.32;;;6.15;;
27161;SDS011;54464;50.558;9.704;2023-07-09T02:57:44;8.30;;;6.10;;
27161;SDS011;54464;50.558;9.704;2023-07-09T03:00:19;7.00;;;5.80;;
27161;SDS011;54464;50.558;9.704;2023-07-09T03:02:44;8.90;;;7.13;;
27161;SDS011;54464;50.558;9.704;2023-07-09T03:05:10;7.37;;;6.00;;
27161;SDS011;54464;50.558;9.704;2023-07-09T03:07:38;9.47;;;6.40;;
27161;SDS011;54464;50.558;9.704;2023-07-09T03:10:07;8.60;;;5.87;;
27161;SDS011;54464;50.558;9.704;2023-07-09T03:12:32;7.07;;;5.70;;
27161;SDS011;54464;50.558;9.704;2023-07-09T03:14:58;8.37;;;6.10;;
27161;SDS011;54464;50.558;9.704;2023-07-09T03:17:24;7.43;;;6.33;;
27161;SDS011;54464;50.558;9.704;2023-07-09T03:19:49;6.37;;;5.70;;
27161;SDS011;54464;50.558;9.704;2023-07-09T03:22:17;6.93;;;5.40;;
27161;SDS011;54464;50.558;9.704;2023-07-09T03:24:43;7.77;;;5.23;;
27161;SDS011;54464;50.558;9.704;2023-07-09T03:27:09;7.27;;;5.77;;
27161;SDS011;54464;50.558;9.704;2023-07-09T03:29:34;7.20;;;5.77;;
27161;SDS011;54464;50.558;9.704;2023-07-09T03:32:00;7.43;;;5.70;;
27161;SDS011;54464;50.558;9.704;2023-07-09T03:34:25;7.70;;;4.97;;
27161;SDS011;54464;50.558;9.704;2023-07-09T03:36:51;7.40;;;5.40;;
27161;SDS011;54464;50.558;9.704;2023-07-09T03:39:19;6.85;;;5.47;;
27161;SDS011;54464;50.558;9.704;2023-07-09T03:41:45;7.50;;;5.05;;
27161;SDS011;54464;50.558;9.704;2023-07-09T03:44:13;5.78;;;5.15;;
27161;SDS011;54464;50.558;9.704;2023-07-09T03:46:39;8.63;;;5.90;;
27161;SDS011;54464;50.558;9.704;2023-07-09T03:49:04;6.78;;;5.32;;
27161;SDS011;54464;50.558;9.704;2023-07-09T03:51:30;6.40;;;5.47;;
27161;SDS011;54464;50.558;9.704;2023-07-09T03:54:01;9.05;;;6.65;;
27161;SDS011;54464;50.558;9.704;2023-07-09T03:56:26;7.30;;;5.73;;
27161;SDS011;54464;50.558;9.704;2023-07-09T03:58:52;9.43;;;6.43;;
27161;SDS011;54464;50.558;9.704;2023-07-09T04:01:20;6.93;;;5.97;;
27161;SDS011;54464;50.558;9.704;2023-07-09T04:03:46;7.70;;;5.90;;
27161;SDS011;54464;50.558;9.704;2023-07-09T04:06:12;6.87;;;6.17;;
27161;SDS011;54464;50.558;9.704;2023-07-09T04:08:41;8.90;;;7.17;;
27161;SDS011;54464;50.558;9.704;2023-07-09T04:11:15;8.20;;;6.23;;
27161;SDS011;54464;50.558;9.704;2023-07-09T04:13:41;9.57;;;7.87;;
27161;SDS011;54464;50.558;9.704;2023-07-09T04:16:06;8.23;;;6.67;;
27161;SDS011;54464;50.558;9.704;2023-07-09T04:18:32;8.40;;;7.03;;
27161;SDS011;54464;50.558;9.704;2023-07-09T04:20:57;9.93;;;7.00;;
27161;SDS011;54464;50.558;9.704;2023-07-09T04:23:26;8.30;;;6.87;;
27161;SDS011;54464;50.558;9.704;2023-07-09T04:25:51;8.00;;;6.70;;
27161;SDS011;54464;50.558;9.704;2023-07-09T04:28:17;9.03;;;6.73;;
27161;SDS011;54464;50.558;9.704;2023-07-09T04:30:49;7.43;;;6.63;;
27161;SDS011;54464;50.558;9.704;2023-07-09T04:33:19;11.00;;;7.10;;
27161;SDS011;54464;50.558;9.704;2023-07-09T04:35:48;8.03;;;6.23;;
27161;SDS011;54464;50.558;9.704;2023-07-09T04:38:14;8.80;;;6.80;;
27161;SDS011;54464;50.558;9.704;2023-07-09T04:40:44;10.10;;;7.20;;
27161;SDS011;54464;50.558;9.704;2023-07-09T04:43:13;10.00;;;7.10;;
27161;SDS011;54464;50.558;9.704;2023-07-09T04:45:39;7.73;;;6.83;;
27161;SDS011;54464;50.558;9.704;2023-07-09T04:48:05;9.43;;;7.20;;
27161;SDS011;54464;50.558;9.704;2023-07-09T04:50:31;11.00;;;8.30;;
27161;SDS011;54464;50.558;9.704;2023-07-09T04:52:56;12.47;;;8.67;;
27161;SDS011;54464;50.558;9.704;2023-07-09T04:55:28;9.50;;;7.50;;
27161;SDS011;54464;50.558;9.704;2023-07-09T04:57:54;11.00;;;8.70;;
27161;SDS011;54464;50.558;9.704;2023-07-09T05:00:19;11.13;;;8.23;;
27161;SDS011;54464;50.558;9.704;2023-07-09T05:02:45;10.07;;;8.17;;
27161;SDS011;54464;50.558;9.704;2023-07-09T05:05:16;8.87;;;6.73;;
27161;SDS011;54464;50.558;9.704;2023-07-09T05:07:42;10.40;;;6.70;;
27161;SDS011;54464;50.558;9.704;2023-07-09T05:10:08;8.20;;;6.07;;
27161;SDS011;54464;50.558;9.704;2023-07-09T05:12:34;8.67;;;5.70;;
27161;SDS011;54464;50.558;9.704;2023-07-09T05:14:59;7.87;;;6.07;;
27161;SDS011;54464;50.558;9.704;2023-07-09T05:17:25;7.73;;;5.13;;
27161;SDS011;54464;50.558;9.704;2023-07-09T05:19:51;7.13;;;5.40;;
27161;SDS011;54464;50.558;9.704;2023-07-09T05:22:22;9.07;;;6.40;;
27161;SDS011;54464;50.558;9.704;2023-07-09T05:24:48;8.63;;;6.93;;
27161;SDS011;54464;50.558;9.704;2023-07-09T05:27:16;8.70;;;6.43;;
27161;SDS011;54464;50.558;9.704;2023-07-09T05:29:42;10.47;;;7.73;;
27161;SDS011;54464;50.558;9.704;2023-07-09T05:32:15;8.13;;;6.77;;
27161;SDS011;54464;50.558;9.704;2023-07-09T05:34:41;7.83;;;6.50;;
27161;SDS011;54464;50.558;9.704;2023-07-09T05:37:06;9.13;;;6.50;;
27161;SDS011;54464;50.558;9.704;2023-07-09T05:39:32;9.30;;;6.97;;
27161;SDS011;54464;50.558;9.704;2023-07-09T05:42:10;9.17;;;7.10;;
27161;SDS011;54464;50.558;9.704;2023-07-09T05:44:35;8.00;;;7.10;;
27161;SDS011;54464;50.558;9.704;2023-07-09T05:47:01;8.37;;;6.80;;
27161;SDS011;54464;50.558;9.704;2023-07-09T05:49:26;9.83;;;6.80;;
27161;SDS011;54464;50.558;9.704;2023-07-09T05:52:01;8.57;;;6.40;;
27161;SDS011;54464;50.558;9.704;2023-07-09T05:54:27;10.30;;;7.53;;
27161;SDS011;54464;50.558;9.704;2023-07-09T05:56:52;8.60;;;6.93;;
27161;SDS011;54464;50.558;9.704;2023-07-09T05:59:18;10.87;;;7.00;;
27161;SDS011;54464;50.558;9.704;2023-07-09T06:01:43;9.97;;;6.87;;
27161;SDS011;54464;50.558;9.704;2023-07-09T06:04:09;9.17;;;6.40;;
27161;SDS011;54464;50.558;9.704;2023-07-09T06:06:36;7.30;;;5.70;;
27161;SDS011;54464;50.558;9.704;2023-07-09T06:09:02;6.60;;;5.13;;
27161;SDS011;54464;50.558;9.704;2023-07-09T06:11:28;7.23;;;5.47;;
27161;SDS011;54464;50.558;9.704;2023-07-09T06:13:53;8.30;;;5.65;;
27161;SDS011;54464;50.558;9.704;2023-07-09T06:16:19;6.93;;;5.25;;
27161;SDS011;54464;50.558;9.704;2023-07-09T06:18:45;7.38;;;5.18;;
27161;SDS011;54464;50.558;9.704;2023-07-09T06:21:11;7.80;;;5.78;;
27161;SDS011;54464;50.558;9.704;2023-07-09T06:23:38;6.47;;;5.17;;
27161;SDS011;54464;50.558;9.704;2023-07-09T06:26:03;5.80;;;4.75;;
27161;SDS011;54464;50.558;9.704;2023-07-09T06:28:29;5.90;;;4.25;;
27161;SDS011;54464;50.558;9.704;2023-07-09T06:30:56;7.90;;;4.88;;
27161;SDS011;54464;50.558;9.704;2023-07-09T06:33:22;5.78;;;4.25;;
27161;SDS011;54464;50.558;9.704;2023-07-09T06:35:56;4.88;;;4.32;;
27161;SDS011;54464;50.558;9.704;2023-07-09T06:38:23;5.07;;;3.95;;
27161;SDS011;54464;50.558;9.704;2023-07-09T06:40:50;4.80;;;3.70;;
27161;SDS011;54464;50.558;9.704;2023-07-09T06:43:16;5.97;;;4.05;;
27161;SDS011;54464;50.558;9.704;2023-07-09T06:45:52;7.30;;;3.90;;
27161;SDS011;54464;50.558;9.704;2023-07-09T06:48:22;4.90;;;3.88;;
27161;SDS011;54464;50.558;9.704;2023-07-09T06:50:49;5.82;;;3.90;;
27161;SDS011;54464;50.558;9.704;2023-07-09T06:53:15;4.35;;;3.60;;
27161;SDS011;54464;50.558;9.704;2023-07-09T06:55:41;4.68;;;3.38;;
27161;SDS011;54464;50.558;9.704;2023-07-09T06:58:07;4.95;;;3.20;;
27161;SDS011;54464;50.558;9.704;2023-07-09T07:00:33;3.92;;;3.53;;
27161;SDS011;54464;50.558;9.704;2023-07-09T07:03:00;5.50;;;3.85;;
27161;SDS011;54464;50.558;9.704;2023-07-09T07:05:26;4.65;;;3.97;;
27161;SDS011;54464;50.558;9.704;2023-07-09T07:07:52;4.05;;;3.38;;
27161;SDS011;54464;50.558;9.704;2023-07-09T07:10:18;3.67;;;2.92;;
27161;SDS011;54464;50.558;9.704;2023-07-09T07:12:45;5.15;;;3.33;;
27161;SDS011;54464;50.558;9.704;2023-07-09T07:15:13;5.07;;;3.20;;
27161;SDS011;54464;50.558;9.704;2023-07-09T07:17:41;4.03;;;3.25;;
27161;SDS011;54464;50.558;9.704;2023-07-09T07:20:07;5.18;;;3.60;;
27161;SDS011;54464;50.558;9.704;2023-07-09T07:22:34;3.47;;;3.00;;
27161;SDS011;54464;50.558;9.704;2023-07-09T07:24:59;4.57;;;3.50;;
27161;SDS011;54464;50.558;9.704;2023-07-09T07:27:25;4.43;;;3.10;;
27161;SDS011;54464;50.558;9.704;2023-07-09T07:29:50;5.93;;;3.58;;
27161;SDS011;54464;50.558;9.704;2023-07-09T07:32:16;4.20;;;3.33;;
27161;SDS011;54464;50.558;9.704;2023-07-09T07:34:42;4.93;;;3.60;;
27161;SDS011;54464;50.558;9.704;2023-07-09T07:37:07;5.18;;;3.47;;
27161;SDS011;54464;50.558;9.704;2023-07-09T07:39:33;4.97;;;3.30;;
27161;SDS011;54464;50.558;9.704;2023-07-09T07:41:58;4.78;;;3.50;;
27161;SDS011;54464;50.558;9.704;2023-07-09T07:44:24;5.40;;;3.05;;
27161;SDS011;54464;50.558;9.704;2023-07-09T07:46:50;4.50;;;3.30;;
27161;SDS011;54464;50.558;9.704;2023-07-09T07:49:15;5.68;;;3.20;;
27161;SDS011;54464;50.558;9.704;2023-07-09T07:51:41;3.83;;;2.90;;
27161;SDS011;54464;50.558;9.704;2023-07-09T07:54:07;5.03;;;3.40;;
27161;SDS011;54464;50.558;9.704;2023-07-09T07:56:35;5.43;;;3.47;;
27161;SDS011;54464;50.558;9.704;2023-07-09T07:59:01;6.75;;;3.33;;
27161;SDS011;54464;50.558;9.704;2023-07-09T08:01:35;4.75;;;3.22;;
27161;SDS011;54464;50.558;9.704;2023-07-09T08:04:01;5.15;;;3.33;;
27161;SDS011;54464;50.558;9.704;2023-07-09T08:06:27;4.18;;;3.47;;
27161;SDS011;54464;50.558;9.704;2023-07-09T08:08:54;5.57;;;3.80;;
27161;SDS011;54464;50.558;9.704;2023-07-09T08:11:19;7.00;;;3.90;;
27161;SDS011;54464;50.558;9.704;2023-07-09T08:13:45;5.82;;;3.10;;
27161;SDS011;54464;50.558;9.704;2023-07-09T08:16:18;4.40;;;3.30;;
27161;SDS011;54464;50.558;9.704;2023-07-09T08:18:44;3.67;;;3.13;;
27161;SDS011;54464;50.558;9.704;2023-07-09T08:21:12;4.90;;;3.40;;
27161;SDS011;54464;50.558;9.704;2023-07-09T08:23:41;3.22;;;2.90;;
27161;SDS011;54464;50.558;9.704;2023-07-09T08:26:06;5.55;;;3.40;;
27161;SDS011;54464;50.558;9.704;2023-07-09T08:28:35;5.15;;;3.08;;
27161;SDS011;54464;50.558;9.704;2023-07-09T08:31:01;4.60;;;3.22;;
27161;SDS011;54464;50.558;9.704;2023-07-09T08:33:27;6.05;;;3.25;;
27161;SDS011;54464;50.558;9.704;2023-07-09T08:35:55;3.80;;;3.17;;
27161;SDS011;54464;50.558;9.704;2023-07-09T08:38:21;3.88;;;3.13;;
27161;SDS011;54464;50.558;9.704;2023-07-09T08:40:50;5.15;;;3.30;;
27161;SDS011;54464;50.558;9.704;2023-07-09T08:48:58;5.90;;;3.38;;
27161;SDS011;54464;50.558;9.704;2023-07-09T08:51:28;6.15;;;3.35;;
27161;SDS011;54464;50.558;9.704;2023-07-09T08:54:09;6.93;;;3.38;;
27161;SDS011;54464;50.558;9.704;2023-07-09T08:56:55;4.57;;;3.20;;
27161;SDS011;54464;50.558;9.704;2023-07-09T08:59:24;4.40;;;3.05;;
27161;SDS011;54464;50.558;9.704;2023-07-09T09:01:52;4.07;;;3.28;;
27161;SDS011;54464;50.558;9.704;2023-07-09T09:04:25;4.88;;;3.58;;
27161;SDS011;54464;50.558;9.704;2023-07-09T09:07:14;3.72;;;3.13;;
27161;SDS011;54464;50.558;9.704;2023-07-09T09:13:05;4.57;;;3.05;;
27161;SDS011;54464;50.558;9.704;2023-07-09T09:15:42;4.10;;;3.08;;
27161;SDS011;54464;50.558;9.704;2023-07-09T09:18:29;5.30;;;3.80;;
27161;SDS011;54464;50.558;9.704;2023-07-09T09:21:07;5.30;;;3.90;;
27161;SDS011;54464;50.558;9.704;2023-07-09T09:23:43;5.38;;;4.00;;
27161;SDS011;54464;50.558;9.704;2023-07-09T09:26:30;5.57;;;3.65;;
27161;SDS011;54464;50.558;9.704;2023-07-09T09:29:16;4.57;;;3.67;;
27161;SDS011;54464;50.558;9.704;2023-07-09T09:32:10;7.60;;;4.50;;
27161;SDS011;54464;50.558;9.704;2023-07-09T09:34:48;5.15;;;3.78;;
27161;SDS011;54464;50.558;9.704;2023-07-09T09:37:23;4.65;;;3.65;;
27161;SDS011;54464;50.558;9.704;2023-07-09T09:39:59;5.63;;;3.63;;
27161;SDS011;54464;50.558;9.704;2023-07-09T09:42:25;5.22;;;3.38;;
27161;SDS011;54464;50.558;9.704;2023-07-09T09:44:56;5.65;;;4.25;;
27161;SDS011;54464;50.558;9.704;2023-07-09T09:47:25;6.70;;;3.22;;
27161;SDS011;54464;50.558;9.704;2023-07-09T09:49:52;5.63;;;3.60;;
27161;SDS011;54464;50.558;9.704;2023-07-09T09:52:29;7.18;;;3.85;;
27161;SDS011;54464;50.558;9.704;2023-07-09T09:55:01;6.03;;;3.80;;
27161;SDS011;54464;50.558;9.704;2023-07-09T09:57:39;5.82;;;3.70;;
27161;SDS011;54464;50.558;9.704;2023-07-09T10:00:05;5.88;;;3.85;;
27161;SDS011;54464;50.558;9.704;2023-07-09T10:02:38;4.55;;;3.70;;
27161;SDS011;54464;50.558;9.704;2023-07-09T10:05:10;5.85;;;3.45;;
27161;SDS011;54464;50.558;9.704;2023-07-09T10:10:37;4.78;;;3.50;;
27161;SDS011;54464;50.558;9.704;2023-07-09T10:13:10;4.65;;;3.30;;
27161;SDS011;54464;50.558;9.704;2023-07-09T10:16:05;5.50;;;3.58;;
27161;SDS011;54464;50.558;9.704;2023-07-09T10:21:27;6.43;;;3.70;;
27161;SDS011;54464;50.558;9.704;2023-07-09T10:24:20;6.25;;;3.63;;
27161;SDS011;54464;50.558;9.704;2023-07-09T10:27:16;5.30;;;3.50;;
27161;SDS011;54464;50.558;9.704;2023-07-09T10:30:03;6.00;;;3.97;;
27161;SDS011;54464;50.558;9.704;2023-07-09T10:33:13;4.47;;;3.25;;
27161;SDS011;54464;50.558;9.704;2023-07-09T10:36:22;5.68;;;4.07;;
27161;SDS011;54464;50.558;9.704;2023-07-09T10:39:00;5.28;;;4.53;;
27161;SDS011;54464;50.558;9.704;2023-07-09T10:41:28;5.72;;;3.85;;
27161;SDS011;54464;50.558;9.704;2023-07-09T10:44:00;5.70;;;3.55;;
27161;SDS011;54464;50.558;9.704;2023-07-09T10:46:34;5.00;;;3.67;;
27161;SDS011;54464;50.558;9.704;2023-07-09T10:49:03;4.72;;;3.60;;
27161;SDS011;54464;50.558;9.704;2023-07-09T10:51:41;7.03;;;4.93;;
27161;SDS011;54464;50.558;9.704;2023-07-09T10:56:54;5.43;;;3.67;;
27161;SDS011;54464;50.558;9.704;2023-07-09T10:59:29;4.75;;;3.65;;
27161;SDS011;54464;50.558;9.704;2023-07-09T11:02:13;5.30;;;3.75;;
27161;SDS011;54464;50.558;9.704;2023-07-09T11:05:00;5.65;;;3.30;;
27161;SDS011;54464;50.558;9.704;2023-07-09T11:07:36;4.68;;;3.33;;
27161;SDS011;54464;50.558;9.704;2023-07-09T11:10:19;4.95;;;3.38;;
27161;SDS011;54464;50.558;9.704;2023-07-09T11:13:02;4.72;;;3.60;;
27161;SDS011;54464;50.558;9.704;2023-07-09T11:15:36;6.68;;;3.58;;
27161;SDS011;54464;50.558;9.704;2023-07-09T11:18:06;6.20;;;3.50;;
27161;SDS011;54464;50.558;9.704;2023-07-09T11:20:36;5.72;;;3.67;;
27161;SDS011;54464;50.558;9.704;2023-07-09T11:23:18;6.00;;;3.85;;
27161;SDS011;54464;50.558;9.704;2023-07-09T11:26:00;5.97;;;3.78;;
27161;SDS011;54464;50.558;9.704;2023-07-09T11:28:37;4.75;;;3.85;;
27161;SDS011;54464;50.558;9.704;2023-07-09T11:33:49;5.60;;;3.80;;
27161;SDS011;54464;50.558;9.704;2023-07-09T11:36:27;4.65;;;3.30;;
27161;SDS011;54464;50.558;9.704;2023-07-09T11:38:54;4.78;;;3.70;;
27161;SDS011;54464;50.558;9.704;2023-07-09T11:44:20;4.28;;;3.45;;
27161;SDS011;54464;50.558;9.704;2023-07-09T11:49:54;5.50;;;3.58;;
27161;SDS011;54464;50.558;9.704;2023-07-09T11:52:27;4.32;;;3.90;;
27161;SDS011;54464;50.558;9.704;2023-07-09T11:55:05;4.55;;;3.42;;
27161;SDS011;54464;50.558;9.704;2023-07-09T11:57:57;5.70;;;3.40;;
27161;SDS011;54464;50.558;9.704;2023-07-09T12:00:26;5.15;;;3.72;;
27161;SDS011;54464;50.558;9.704;2023-07-09T13:06:46;4.95;;;3.35;;
27161;SDS011;54464;50.558;9.704;2023-07-09T13:09:21;4.38;;;3.40;;
27161;SDS011;54464;50.558;9.704;2023-07-09T13:11:47;5.63;;;3.40;;
27161;SDS011;54464;50.558;9.704;2023-07-09T13:17:04;5.88;;;3.45;;
27161;SDS011;54464;50.558;9.704;2023-07-09T13:19:35;6.55;;;3.95;;
27161;SDS011;54464;50.558;9.704;2023-07-09T13:22:13;4.57;;;3.30;;
27161;SDS011;54464;50.558;9.704;2023-07-09T13:24:41;4.28;;;3.20;;
27161;SDS011;54464;50.558;9.704;2023-07-09T13:27:16;4.32;;;3.92;;
27161;SDS011;54464;50.558;9.704;2023-07-09T13:29:42;6.20;;;3.50;;
27161;SDS011;54464;50.558;9.704;2023-07-09T13:32:09;5.63;;;3.70;;
27161;SDS011;54464;50.558;9.704;2023-07-09T13:34:35;5.28;;;3.58;;
27161;SDS011;54464;50.558;9.704;2023-07-09T13:37:02;6.68;;;3.40;;
27161;SDS011;54464;50.558;9.704;2023-07-09T13:39:27;4.65;;;3.38;;
27161;SDS011;54464;50.558;9.704;2023-07-09T13:41:53;5.93;;;3.55;;
27161;SDS011;54464;50.558;9.704;2023-07-09T13:44:30;6.15;;;3.50;;
27161;SDS011;54464;50.558;9.704;2023-07-09T13:47:00;7.35;;;4.15;;
27161;SDS011;54464;50.558;9.704;2023-07-09T13:49:32;5.05;;;3.15;;
27161;SDS011;54464;50.558;9.704;2023-07-09T13:51:58;5.45;;;3.55;;
27161;SDS011;54464;50.558;9.704;2023-07-09T13:54:26;5.68;;;3.70;;
27161;SDS011;54464;50.558;9.704;2023-07-09T13:57:06;5.78;;;3.88;;
27161;SDS011;54464;50.558;9.704;2023-07-09T13:59:37;5.18;;;3.13;;
27161;SDS011;54464;50.558;9.704;2023-07-09T14:02:35;4.55;;;3.50;;
27161;SDS011;54464;50.558;9.704;2023-07-09T14:05:04;5.97;;;3.42;;
27161;SDS011;54464;50.558;9.704;2023-07-09T14:07:34;4.38;;;3.40;;
27161;SDS011;54464;50.558;9.704;2023-07-09T14:10:03;5.90;;;3.35;;
27161;SDS011;54464;50.558;9.704;2023-07-09T14:12:31;4.00;;;3.55;;
27161;SDS011;54464;50.558;9.704;2023-07-09T14:14:58;6.45;;;3.78;;
27161;SDS011;54464;50.558;9.704;2023-07-09T14:17:25;4.82;;;3.25;;
27161;SDS011;54464;50.558;9.704;2023-07-09T14:19:52;4.05;;;3.05;;
27161;SDS011;54464;50.558;9.704;2023-07-09T14:22:23;5.35;;;3.33;;
27161;SDS011;54464;50.558;9.704;2023-07-09T14:24:54;4.22;;;2.92;;
27161;SDS011;54464;50.558;9.704;2023-07-09T14:27:19;5.90;;;3.75;;
27161;SDS011;54464;50.558;9.704;2023-07-09T14:29:45;5.15;;;3.50;;
27161;SDS011;54464;50.558;9.704;2023-07-09T14:35:17;5.88;;;3.30;;
27161;SDS011;54464;50.558;9.704;2023-07-09T14:37:48;4.82;;;3.25;;
27161;SDS011;54464;50.558;9.704;2023-07-09T14:40:19;5.50;;;3.90;;
27161;SDS011;54464;50.558;9.704;2023-07-09T14:42:46;8.13;;;4.15;;
27161;SDS011;54464;50.558;9.704;2023-07-09T14:45:30;4.88;;;3.78;;
27161;SDS011;54464;50.558;9.704;2023-07-09T14:47:57;6.13;;;3.70;;
27161;SDS011;54464;50.558;9.704;2023-07-09T14:50:23;5.63;;;3.60;;
27161;SDS011;54464;50.558;9.704;2023-07-09T14:52:50;5.88;;;3.53;;
27161;SDS011;54464;50.558;9.704;2023-07-09T14:55:19;7.18;;;4.10;;
27161;SDS011;54464;50.558;9.704;2023-07-09T14:57:54;5.78;;;4.10;;
27161;SDS011;54464;50.558;9.704;2023-07-09T15:00:20;5.32;;;3.47;;
27161;SDS011;54464;50.558;9.704;2023-07-09T15:02:53;4.53;;;3.83;;
27161;SDS011;54464;50.558;9.704;2023-07-09T15:05:25;5.63;;;3.55;;
27161;SDS011;54464;50.558;9.704;2023-07-09T15:07:55;6.78;;;4.13;;
27161;SDS011;54464;50.558;9.704;2023-07-09T15:10:22;5.97;;;4.07;;
27161;SDS011;54464;50.558;9.704;2023-07-09T15:12:49;3.97;;;3.35;;
27161;SDS011;54464;50.558;9.704;2023-07-09T15:15:28;5.15;;;3.50;;
27161;SDS011;54464;50.558;9.704;2023-07-09T15:17:56;5.85;;;3.42;;
27161;SDS011;54464;50.558;9.704;2023-07-09T15:20:24;4.80;;;3.97;;
27161;SDS011;54464;50.558;9.704;2023-07-09T15:22:55;5.80;;;4.22;;
27161;SDS011;54464;50.558;9.704;2023-07-09T15:25:26;4.85;;;3.83;;
27161;SDS011;54464;50.558;9.704;2023-07-09T15:27:53;5.95;;;4.00;;
27161;SDS011;54464;50.558;9.704;2023-07-09T15:30:21;6.00;;;4.15;;
27161;SDS011;54464;50.558;9.704;2023-07-09T15:32:51;5.47;;;3.88;;
27161;SDS011;54464;50.558;9.704;2023-07-09T15:35:19;5.18;;;3.67;;
27161;SDS011;54464;50.558;9.704;2023-07-09T15:37:45;4.75;;;3.58;;
27161;SDS011;54464;50.558;9.704;2023-07-09T15:40:21;7.10;;;3.85;;
27161;SDS011;54464;50.558;9.704;2023-07-09T15:42:49;6.85;;;3.67;;
27161;SDS011;54464;50.558;9.704;2023-07-09T15:45:20;5.35;;;3.55;;
27161;SDS011;54464;50.558;9.704;2023-07-09T15:47:46;4.85;;;3.60;;
27161;SDS011;54464;50.558;9.704;2023-07-09T15:50:18;7.25;;;3.88;;
27161;SDS011;54464;50.558;9.704;2023-07-09T15:52:46;5.80;;;3.55;;
27161;SDS011;54464;50.558;9.704;2023-07-09T15:55:22;3.95;;;3.53;;
27161;SDS011;54464;50.558;9.704;2023-07-09T15:57:50;5.70;;;3.80;;
27161;SDS011;54464;50.558;9.704;2023-07-09T16:00:21;6.10;;;3.85;;
27161;SDS011;54464;50.558;9.704;2023-07-09T16:02:55;6.07;;;4.07;;
27161;SDS011;54464;50.558;9.704;2023-07-09T16:05:25;4.18;;;3.65;;
27161;SDS011;54464;50.558;9.704;2023-07-09T16:08:10;5.63;;;4.28;;
27161;SDS011;54464;50.558;9.704;2023-07-09T16:10:36;5.30;;;3.78;;
27161;SDS011;54464;50.558;9.704;2023-07-09T16:13:02;5.93;;;3.97;;
27161;SDS011;54464;50.558;9.704;2023-07-09T16:15:28;4.20;;;3.70;;
27161;SDS011;54464;50.558;9.704;2023-07-09T16:17:53;6.10;;;4.47;;
27161;SDS011;54464;50.558;9.704;2023-07-09T16:20:24;7.35;;;4.32;;
27161;SDS011;54464;50.558;9.704;2023-07-09T16:22:57;7.82;;;4.10;;
27161;SDS011;54464;50.558;9.704;2023-07-09T16:25:33;6.03;;;4.03;;
27161;SDS011;54464;50.558;9.704;2023-07-09T16:28:14;5.95;;;3.65;;
27161;SDS011;54464;50.558;9.704;2023-07-09T16:30:41;5.90;;;3.97;;
27161;SDS011;54464;50.558;9.704;2023-07-09T16:33:09;5.60;;;3.83;;
27161;SDS011;54464;50.558;9.704;2023-07-09T16:35:43;4.90;;;4.05;;
27161;SDS011;54464;50.558;9.704;2023-07-09T16:38:12;4.40;;;3.92;;
27161;SDS011;54464;50.558;9.704;2023-07-09T16:40:37;7.40;;;4.25;;
27161;SDS011;54464;50.558;9.704;2023-07-09T16:43:13;9.43;;;4.60;;